Thurston, Nebraska
Current Conditions -  °F | °C
As of 1:55 PM on Thursday 30 Oct 2014 (Local Time) from KLCG Reporting Station
Scattered Clouds Scattered Clouds  
Wind Chill: 56°   Ceiling: Unl
Heat Index: 56°   Visibility: 10mi
Dew Point: 40°   Wind: 20mph
Humidity: 54%   Direction: 330°NNW
Pressure: 30.14"   Gusts: 29mph
Location:  42.18°N, 96.7°W
Report Text: KLCG 301855Z AUTO 33017G25KT 10SM SCT034 13/04 A3014 RMK AO2 T01330042
Loading
Personal Weather Stations






























Interactive Weather Map
Tropical Storm Tracking
New forecast layout! Learn more

10-Day Weather Forecast

Advertisements
Track Severe Weather on mobile